Time;durP1;ratioP1;P1;durP2;ratioP2;P2;SDS_P1;SDS_P2;PMS_P1;PMS_P2;Temp;Humidity;BMP_temperature;BMP_pressure;BME280_temperature;BME280_humidity;BME280_pressure;Samples;Min_cycle;Max_cycle;Signal;HPM_P1;HPM_P2
2021/11/10 00:00:52;;;;;;;16.73;9.27;;;-0.70;99.90;;;;;;2080996;28;20291;-64
2021/11/10 00:01:53;;;;;;;16.13;10.07;;;-0.60;99.90;;;;;;2080837;28;20656;-64
2021/11/10 00:02:54;;;;;;;21.35;9.98;;;-0.60;99.90;;;;;;2081091;28;20173;-64
2021/11/10 00:03:55;;;;;;;17.00;9.30;;;-0.60;99.90;;;;;;2081242;28;20181;-64
2021/11/10 00:04:55;;;;;;;16.10;9.37;;;-0.70;99.80;;;;;;2081075;28;20172;-65
2021/11/10 00:05:56;;;;;;;18.20;9.57;;;-0.60;99.80;;;;;;2081119;28;20550;-65
2021/11/10 00:06:57;;;;;;;17.50;9.10;;;-0.70;99.80;;;;;;2081407;28;20170;-64
2021/11/10 00:07:58;;;;;;;15.57;8.50;;;-0.70;99.80;;;;;;2081054;28;20184;-65
2021/11/10 00:08:59;;;;;;;19.47;9.37;;;-0.70;99.80;;;;;;2081234;28;20215;-64
2021/11/10 00:09:59;;;;;;;18.10;9.13;;;-0.70;99.90;;;;;;2081100;28;20192;-65
2021/11/10 00:11:00;;;;;;;14.13;8.37;;;-0.70;99.90;;;;;;2080924;28;20215;-66
2021/11/10 00:12:01;;;;;;;17.73;9.23;;;-0.70;99.90;;;;;;2080938;28;20196;-65
2021/11/10 00:13:17;;;;;;;17.23;9.33;;;-0.70;99.90;;;;;;2081179;28;20193;-65
2021/11/10 00:14:18;;;;;;;22.48;9.23;;;-0.70;99.90;;;;;;2081045;28;20191;-64
2021/11/10 00:15:19;;;;;;;15.33;9.00;;;-0.70;99.90;;;;;;2081034;28;20213;-65
2021/11/10 00:16:20;;;;;;;17.33;8.47;;;-0.70;99.80;;;;;;2081144;28;20566;-65
2021/11/10 00:17:20;;;;;;;22.47;10.13;;;-0.70;99.70;;;;;;2081029;28;20229;-64
2021/11/10 00:18:21;;;;;;;16.53;8.73;;;-0.70;99.80;;;;;;2081101;28;20208;-64
2021/11/10 00:19:24;;;;;;;17.55;8.55;;;-0.70;99.80;;;;;;2081159;28;20208;-65
2021/11/10 00:20:24;;;;;;;16.90;9.43;;;-0.70;99.90;;;;;;2080922;28;20212;-64
2021/11/10 00:21:27;;;;;;;15.07;8.90;;;-0.80;99.90;;;;;;2080818;28;20598;-65
2021/11/10 00:22:28;;;;;;;14.90;8.75;;;-0.80;99.90;;;;;;2081037;28;20230;-65
2021/11/10 00:23:29;;;;;;;15.87;8.87;;;-0.80;99.90;;;;;;2081013;28;20671;-64
2021/11/10 00:24:30;;;;;;;17.58;8.95;;;-0.80;99.90;;;;;;2081139;28;20211;-65
2021/11/10 00:25:30;;;;;;;15.87;8.50;;;-0.80;99.90;;;;;;2081076;28;20675;-65
2021/11/10 00:26:31;;;;;;;16.03;8.90;;;-0.80;99.90;;;;;;2080983;28;20184;-65
2021/11/10 00:27:32;;;;;;;14.27;8.13;;;-0.80;99.90;;;;;;2081190;28;20176;-65
2021/11/10 00:28:33;;;;;;;19.43;9.13;;;-0.80;99.90;;;;;;2080923;28;20203;-65
2021/11/10 00:29:33;;;;;;;14.17;9.13;;;-0.70;99.90;;;;;;2081097;28;20283;-65
2021/11/10 00:30:34;;;;;;;17.63;9.23;;;-0.70;99.90;;;;;;2080927;28;20185;-63
2021/11/10 00:31:35;;;;;;;14.07;8.67;;;-0.70;99.90;;;;;;2080770;28;20660;-64
2021/11/10 00:32:35;;;;;;;20.50;8.83;;;-0.70;99.90;;;;;;2081090;28;20322;-65
2021/11/10 00:33:36;;;;;;;14.23;8.23;;;-0.70;99.90;;;;;;2081067;28;20200;-64
2021/11/10 00:34:37;;;;;;;18.23;9.33;;;-0.70;99.90;;;;;;2081072;28;20683;-64
2021/11/10 00:35:38;;;;;;;18.67;8.93;;;-0.70;99.80;;;;;;2081177;28;20501;-65
2021/11/10 00:36:39;;;;;;;13.77;8.50;;;-0.70;99.90;;;;;;2081042;28;20657;-64
2021/11/10 00:37:39;;;;;;;16.93;9.33;;;-0.70;99.90;;;;;;2081677;28;20212;-64
2021/11/10 00:38:41;;;;;;;19.40;8.93;;;-0.70;99.90;;;;;;2082384;28;20699;-65
2021/11/10 00:39:41;;;;;;;15.07;8.07;;;-0.70;99.90;;;;;;2082292;28;20188;-65
2021/11/10 00:40:42;;;;;;;15.87;9.37;;;-0.80;99.70;;;;;;2082376;28;20657;-64
2021/11/10 00:41:43;;;;;;;17.60;9.20;;;-0.80;99.60;;;;;;2082203;28;20191;-64
2021/11/10 00:42:44;;;;;;;15.50;8.67;;;-0.80;99.50;;;;;;2081762;28;20186;-64
2021/11/10 00:43:45;;;;;;;11.87;7.30;;;-0.80;99.50;;;;;;2081865;28;20187;-64
2021/11/10 00:44:45;;;;;;;16.20;8.25;;;-0.80;99.40;;;;;;2082378;28;20639;-64
2021/11/10 00:45:46;;;;;;;13.17;7.53;;;-0.80;99.40;;;;;;2082464;28;20183;-64
2021/11/10 00:46:47;;;;;;;14.97;7.90;;;-0.80;99.40;;;;;;2082285;28;20180;-64
2021/11/10 00:47:48;;;;;;;11.90;7.43;;;-0.80;99.30;;;;;;2082363;28;20181;-63
2021/11/10 00:48:48;;;;;;;14.60;7.60;;;-0.80;99.30;;;;;;2082375;28;20559;-64
2021/11/10 00:49:49;;;;;;;14.00;7.77;;;-0.90;99.30;;;;;;2082267;28;20196;-64
2021/11/10 00:50:50;;;;;;;14.73;7.77;;;-0.90;99.40;;;;;;2082334;28;20736;-64
2021/11/10 00:51:51;;;;;;;14.35;8.10;;;-0.90;99.50;;;;;;2082206;28;20582;-63
2021/11/10 00:52:52;;;;;;;12.27;7.23;;;-0.90;99.50;;;;;;2082290;28;20195;-63
2021/11/10 00:53:52;;;;;;;13.00;7.63;;;-0.90;99.50;;;;;;2082297;28;20192;-64
2021/11/10 00:54:53;;;;;;;14.03;7.80;;;-0.90;99.50;;;;;;2082410;28;20569;-63
2021/11/10 00:55:54;;;;;;;13.50;7.60;;;-0.90;99.50;;;;;;2082282;28;20189;-63
2021/11/10 00:56:55;;;;;;;14.17;8.70;;;-1.00;99.30;;;;;;2082340;28;20543;-63
2021/11/10 00:57:56;;;;;;;11.43;7.93;;;-1.00;99.80;;;;;;2082236;28;20218;-65
2021/11/10 00:58:59;;;;;;;15.90;7.83;;;-1.00;99.30;;;;;;2082436;28;20208;-65
2021/11/10 00:59:59;;;;;;;12.32;7.82;;;-1.10;99.30;;;;;;2082384;28;20188;-64
2021/11/10 01:01:00;;;;;;;15.93;8.33;;;-1.10;99.50;;;;;;2081960;28;20334;-64
2021/11/10 01:02:01;;;;;;;17.13;8.87;;;-1.10;99.50;;;;;;2082138;28;20212;-64
2021/11/10 01:03:03;;;;;;;16.30;8.60;;;-1.10;99.80;;;;;;2082432;28;20187;-64
2021/11/10 01:04:04;;;;;;;17.40;8.57;;;-1.10;99.90;;;;;;2082186;28;20267;-64
2021/11/10 01:05:06;;;;;;;15.97;8.27;;;-1.10;99.90;;;;;;2082233;28;20187;-64
2021/11/10 01:06:07;;;;;;;15.50;8.27;;;-1.10;99.90;;;;;;2082119;28;20268;-64
2021/11/10 01:07:08;;;;;;;16.67;8.80;;;-1.10;99.90;;;;;;2082334;28;20185;-63
2021/11/10 01:08:09;;;;;;;19.90;9.07;;;-1.10;99.90;;;;;;2082317;28;20642;-64
2021/11/10 01:09:16;;;;;;;19.20;8.63;;;-1.00;99.90;;;;;;2082456;28;20187;-64
2021/11/10 01:10:17;;;;;;;11.73;7.93;;;-1.00;99.90;;;;;;2082425;28;20178;-63
2021/11/10 01:11:18;;;;;;;13.90;9.13;;;-1.00;99.90;;;;;;2082183;28;20303;-64
2021/11/10 01:12:18;;;;;;;17.93;8.60;;;-0.90;99.90;;;;;;2082393;28;20191;-64
2021/11/10 01:13:20;;;;;;;14.57;8.47;;;-0.90;99.90;;;;;;2082402;28;20200;-63
2021/11/10 01:14:21;;;;;;;17.23;8.93;;;-0.90;99.90;;;;;;2082239;28;20208;-64
2021/11/10 01:15:21;;;;;;;15.30;8.50;;;-0.90;99.90;;;;;;2082357;28;20173;-64
2021/11/10 01:16:23;;;;;;;15.07;9.40;;;-0.90;99.90;;;;;;2082282;28;20191;-64
2021/11/10 01:17:24;;;;;;;15.85;8.30;;;-0.80;99.90;;;;;;2082261;28;20180;-65
2021/11/10 01:18:24;;;;;;;14.77;8.20;;;-0.80;99.90;;;;;;2082285;28;20201;-66
2021/11/10 01:19:25;;;;;;;17.70;8.33;;;-0.80;99.90;;;;;;2082298;28;20593;-64
2021/11/10 01:20:26;;;;;;;15.73;8.57;;;-0.80;99.90;;;;;;2082236;28;20180;-65
2021/11/10 01:21:27;;;;;;;15.20;8.07;;;-0.80;99.90;;;;;;2081983;28;20180;-65
2021/11/10 01:22:28;;;;;;;17.08;9.13;;;-0.70;99.90;;;;;;2082197;28;20187;-65
2021/11/10 01:23:29;;;;;;;18.37;8.50;;;-0.70;99.90;;;;;;2082208;28;20267;-64
2021/11/10 01:24:30;;;;;;;19.08;9.30;;;-0.70;99.90;;;;;;2082056;28;20544;-65
2021/11/10 01:25:31;;;;;;;15.73;9.30;;;-0.60;99.90;;;;;;2082368;28;20216;-65
2021/11/10 01:26:32;;;;;;;15.52;8.50;;;-0.60;99.90;;;;;;2082278;28;20675;-65
2021/11/10 01:27:33;;;;;;;16.13;9.43;;;-0.60;99.90;;;;;;2082215;28;20185;-65
2021/11/10 01:28:34;;;;;;;17.60;8.88;;;-0.60;99.90;;;;;;2082069;28;20197;-65
2021/11/10 01:29:36;;;;;;;17.98;8.90;;;-0.50;99.90;;;;;;2081789;28;20216;-65
2021/11/10 01:30:38;;;;;;;15.00;7.90;;;-0.50;99.90;;;;;;2082237;28;20229;-65
2021/11/10 01:31:38;;;;;;;15.65;8.45;;;-0.50;99.90;;;;;;2082095;28;20278;-65
2021/11/10 01:32:39;;;;;;;21.03;9.27;;;-0.50;99.90;;;;;;2082216;28;20625;-65
2021/11/10 01:33:40;;;;;;;14.73;8.33;;;-0.50;99.90;;;;;;2082202;28;20183;-64
2021/11/10 01:34:41;;;;;;;14.90;8.53;;;-0.50;99.90;;;;;;2082241;28;20195;-65
2021/11/10 01:35:42;;;;;;;12.90;7.80;;;-0.50;99.90;;;;;;2082214;28;20216;-64
2021/11/10 01:36:42;;;;;;;14.47;8.13;;;-0.50;99.90;;;;;;2082376;28;20192;-64
2021/11/10 01:37:45;;;;;;;13.73;8.93;;;-0.40;99.90;;;;;;2082234;28;20183;-65
2021/11/10 01:38:45;;;;;;;12.50;7.97;;;-0.30;99.90;;;;;;2082022;28;20560;-65
2021/11/10 01:39:46;;;;;;;16.70;8.10;;;-0.30;99.90;;;;;;2082103;28;20195;-64
2021/11/10 01:40:47;;;;;;;17.10;8.00;;;-0.20;99.90;;;;;;2082184;28;20227;-65
2021/11/10 01:41:52;;;;;;;14.23;8.17;;;-0.20;99.90;;;;;;2081877;28;20706;-65
2021/11/10 01:42:56;;;;;;;17.17;8.60;;;-0.20;99.90;;;;;;2082196;28;20199;-65
2021/11/10 01:43:56;;;;;;;14.68;7.85;;;-0.10;99.90;;;;;;2082157;28;20311;-65
2021/11/10 01:44:58;;;;;;;15.20;8.07;;;-0.10;99.90;;;;;;2082050;28;20185;-65
2021/11/10 01:45:59;;;;;;;17.88;8.65;;;-0.10;99.90;;;;;;2082293;28;20611;-65
2021/11/10 01:47:08;;;;;;;13.13;7.33;;;-0.10;99.90;;;;;;2082085;28;20241;-65
2021/11/10 01:48:09;;;;;;;13.68;7.93;;;0.00;99.90;;;;;;2082110;28;20200;-65
2021/11/10 01:49:11;;;;;;;11.53;7.33;;;0.00;99.90;;;;;;2081310;28;20213;-65
2021/11/10 01:50:15;;;;;;;13.05;7.70;;;0.00;99.90;;;;;;2082014;28;20196;-65
2021/11/10 01:51:16;;;;;;;12.65;7.10;;;0.10;99.90;;;;;;2081792;28;20272;-65
2021/11/10 01:52:17;;;;;;;15.73;7.87;;;0.10;99.90;;;;;;2082120;28;20178;-64
2021/11/10 01:53:18;;;;;;;11.63;6.83;;;0.10;99.90;;;;;;2082049;28;20412;-64
2021/11/10 01:54:21;;;;;;;12.68;7.15;;;0.10;99.90;;;;;;2082031;28;20205;-65
2021/11/10 01:55:22;;;;;;;11.60;7.00;;;0.20;99.90;;;;;;2082011;28;20259;-65
2021/11/10 01:56:23;;;;;;;12.33;6.60;;;0.10;99.90;;;;;;2082008;28;20235;-65
2021/11/10 01:57:23;;;;;;;17.97;6.70;;;0.20;99.90;;;;;;2081710;28;20177;-65
2021/11/10 01:58:25;;;;;;;14.97;6.43;;;0.20;99.90;;;;;;2081913;28;20192;-65
2021/11/10 01:59:41;;;;;;;11.48;6.60;;;0.30;99.90;;;;;;2082195;28;20227;-65
2021/11/10 02:00:43;;;;;;;8.52;5.57;;;0.30;99.90;;;;;;2082127;28;20212;-65
2021/11/10 02:01:45;;;;;;;11.93;6.38;;;0.30;99.90;;;;;;2081706;28;20181;-65
2021/11/10 02:02:49;;;;;;;11.40;6.40;;;0.40;99.90;;;;;;2081878;28;20557;-65
2021/11/10 02:03:50;;;;;;;12.07;6.13;;;0.40;99.90;;;;;;2081878;28;20189;-65
2021/11/10 02:04:52;;;;;;;10.40;5.70;;;0.50;99.90;;;;;;2082032;28;20234;-64
2021/11/10 02:05:53;;;;;;;10.85;5.80;;;0.50;99.90;;;;;;2081833;28;20177;-65
2021/11/10 02:06:53;;;;;;;11.37;6.63;;;0.60;99.90;;;;;;2081988;28;20440;-64
2021/11/10 02:07:55;;;;;;;12.10;5.70;;;0.60;99.90;;;;;;2081855;28;20227;-65
2021/11/10 02:08:55;;;;;;;9.75;5.10;;;0.70;99.90;;;;;;2081203;28;20212;-65
2021/11/10 02:09:56;;;;;;;12.30;5.87;;;0.70;99.90;;;;;;2081292;28;20184;-65
2021/11/10 02:10:57;;;;;;;10.57;5.27;;;0.70;99.90;;;;;;2081816;28;20181;-64
2021/11/10 02:11:59;;;;;;;12.07;5.30;;;0.70;99.90;;;;;;2081767;28;20192;-63
2021/11/10 02:13:00;;;;;;;10.02;5.70;;;0.80;99.90;;;;;;2081961;28;20656;-66
2021/11/10 02:14:02;;;;;;;11.47;5.77;;;0.80;99.90;;;;;;2081909;28;20218;-65
2021/11/10 02:15:08;;;;;;;9.35;5.53;;;0.80;99.90;;;;;;2081827;28;20451;-66
2021/11/10 02:16:08;;;;;;;9.32;5.38;;;0.80;99.90;;;;;;2081771;28;20168;-65
2021/11/10 02:17:19;;;;;;;8.57;5.50;;;0.80;99.90;;;;;;2081921;28;20181;-65
2021/11/10 02:18:20;;;;;;;7.15;4.30;;;0.80;99.90;;;;;;2081720;28;20208;-66
2021/11/10 02:19:22;;;;;;;9.73;5.53;;;0.70;99.90;;;;;;2081807;28;20185;-66
2021/11/10 02:20:29;;;;;;;11.43;5.10;;;0.80;99.90;;;;;;2081982;28;20181;-65
2021/11/10 02:21:31;;;;;;;8.27;5.28;;;0.80;99.90;;;;;;2081491;28;20197;-66
2021/11/10 02:22:33;;;;;;;9.57;5.32;;;0.80;99.90;;;;;;2081794;28;20185;-65
2021/11/10 02:23:34;;;;;;;7.60;5.10;;;0.80;99.90;;;;;;2081831;28;20185;-65
2021/11/10 02:24:37;;;;;;;8.60;5.00;;;0.80;99.90;;;;;;2081822;28;20187;-65
2021/11/10 02:25:38;;;;;;;9.82;5.80;;;0.80;99.90;;;;;;2081889;28;20185;-65
2021/11/10 02:26:41;;;;;;;9.87;5.43;;;0.80;99.90;;;;;;2081759;28;20648;-62
2021/11/10 02:27:42;;;;;;;9.48;5.35;;;0.80;99.90;;;;;;2081817;28;20502;-65
2021/11/10 02:28:43;;;;;;;8.90;4.90;;;0.90;99.70;;;;;;2081787;28;20178;-65
2021/11/10 02:29:45;;;;;;;9.73;5.43;;;0.80;99.30;;;;;;2081888;28;20181;-65
2021/11/10 02:30:46;;;;;;;11.43;5.68;;;0.70;98.70;;;;;;2081757;28;20703;-65
2021/11/10 02:31:47;;;;;;;10.17;5.10;;;0.60;99.10;;;;;;2081689;28;20189;-65
2021/11/10 02:32:57;;;;;;;10.15;5.47;;;0.40;99.40;;;;;;2081776;28;20184;-65
2021/11/10 02:34:04;;;;;;;9.05;5.35;;;0.40;99.80;;;;;;2081909;28;20177;-65
2021/11/10 02:35:06;;;;;;;8.32;5.50;;;0.30;99.90;;;;;;2081760;28;20169;-65
2021/11/10 02:36:07;;;;;;;8.77;6.15;;;0.30;99.90;;;;;;2081783;28;20192;-65
2021/11/10 02:37:13;;;;;;;10.63;5.45;;;0.30;99.90;;;;;;2081782;28;20219;-66
2021/11/10 02:38:14;;;;;;;9.45;5.38;;;0.30;99.90;;;;;;2081636;28;20582;-65
2021/11/10 02:39:20;;;;;;;10.77;5.30;;;0.30;99.90;;;;;;2081206;28;20268;-65
2021/11/10 02:40:22;;;;;;;10.90;5.57;;;0.30;99.90;;;;;;2081060;28;20252;-65
2021/11/10 02:41:23;;;;;;;11.27;6.07;;;0.30;99.90;;;;;;2081537;28;20584;-65
2021/11/10 02:42:24;;;;;;;14.70;6.05;;;0.20;99.60;;;;;;2081771;28;20179;-65
2021/11/10 02:43:25;;;;;;;12.10;5.70;;;0.20;99.40;;;;;;2081677;28;20173;-66
2021/11/10 02:44:26;;;;;;;11.10;6.05;;;0.20;99.30;;;;;;2081689;28;20554;-64
2021/11/10 02:45:29;;;;;;;10.40;5.33;;;0.20;99.10;;;;;;2081741;28;20191;-65
2021/11/10 02:46:30;;;;;;;10.52;5.53;;;0.20;99.00;;;;;;2081625;28;20557;-65
2021/11/10 02:47:31;;;;;;;9.60;6.13;;;0.10;98.90;;;;;;2081699;28;20189;-65
2021/11/10 02:48:31;;;;;;;10.53;5.63;;;0.10;98.80;;;;;;2081588;28;20192;-65
2021/11/10 02:49:33;;;;;;;9.90;5.93;;;0.10;98.80;;;;;;2081445;28;20448;-65
2021/11/10 02:50:34;;;;;;;11.90;5.90;;;0.00;98.90;;;;;;2081784;28;20157;-64
2021/11/10 02:51:34;;;;;;;7.87;5.40;;;0.00;99.50;;;;;;2081431;28;20192;-65
2021/11/10 02:52:36;;;;;;;10.40;5.07;;;0.00;99.80;;;;;;2081789;28;20212;-65
2021/11/10 02:53:36;;;;;;;9.02;5.93;;;0.00;99.90;;;;;;2081666;28;20255;-65
2021/11/10 02:54:47;;;;;;;11.07;5.27;;;0.10;99.90;;;;;;2081472;28;20199;-65
2021/11/10 02:55:47;;;;;;;10.23;5.95;;;0.20;99.90;;;;;;2081938;28;20173;-65
2021/11/10 02:56:48;;;;;;;9.20;6.10;;;0.20;99.90;;;;;;2081469;28;20181;-65
2021/11/10 02:57:49;;;;;;;11.27;7.00;;;0.30;99.90;;;;;;2081403;28;20211;-65
2021/11/10 02:58:49;;;;;;;14.10;6.73;;;0.30;99.90;;;;;;2081654;28;20184;-66
2021/11/10 02:59:50;;;;;;;12.93;6.83;;;0.30;99.90;;;;;;2081671;28;20192;-66
2021/11/10 03:00:51;;;;;;;10.98;6.30;;;0.30;99.90;;;;;;2080831;28;20239;-66
2021/11/10 03:01:53;;;;;;;10.20;6.50;;;0.40;99.90;;;;;;2081084;28;20188;-66
2021/11/10 03:02:55;;;;;;;14.60;7.03;;;0.40;99.90;;;;;;2081480;28;20209;-66
2021/11/10 03:03:56;;;;;;;11.27;6.57;;;0.40;99.90;;;;;;2081602;28;20566;-66
2021/11/10 03:04:58;;;;;;;16.37;7.23;;;0.40;99.90;;;;;;2081466;28;20181;-65
2021/11/10 03:05:59;;;;;;;11.95;6.95;;;0.40;99.90;;;;;;2081592;28;20552;-65
2021/11/10 03:07:01;;;;;;;16.20;6.95;;;0.40;99.90;;;;;;2081571;28;20185;-65
2021/11/10 03:08:02;;;;;;;10.60;6.45;;;0.30;99.70;;;;;;2081582;28;20185;-65
2021/11/10 03:09:03;;;;;;;10.10;5.97;;;0.30;99.40;;;;;;2081523;28;20335;-66
2021/11/10 03:10:05;;;;;;;10.33;5.93;;;0.20;99.30;;;;;;2081437;28;20212;-66
2021/11/10 03:11:06;;;;;;;11.35;6.05;;;0.10;98.90;;;;;;2081098;28;20714;-66
2021/11/10 03:12:09;;;;;;;10.27;6.03;;;0.10;98.80;;;;;;2081498;28;20192;-65
2021/11/10 03:13:10;;;;;;;13.35;6.05;;;0.00;98.40;;;;;;2081452;28;20683;-65
2021/11/10 03:14:11;;;;;;;9.07;5.90;;;0.00;98.60;;;;;;2081575;28;20223;-65
2021/11/10 03:15:12;;;;;;;13.07;6.55;;;-0.10;98.60;;;;;;2081422;28;20181;-65
2021/11/10 03:16:13;;;;;;;10.73;6.10;;;-0.10;98.70;;;;;;2081322;28;20181;-66
2021/11/10 03:17:17;;;;;;;10.20;5.70;;;-0.10;98.80;;;;;;2081420;28;20185;-65
2021/11/10 03:18:18;;;;;;;8.13;5.78;;;-0.20;98.70;;;;;;2081486;28;20197;-65
2021/11/10 03:19:20;;;;;;;8.90;5.57;;;-0.20;98.60;;;;;;2081486;28;20193;-65
2021/11/10 03:20:21;;;;;;;9.68;6.00;;;-0.20;98.60;;;;;;2081373;28;20773;-65
2021/11/10 03:21:21;;;;;;;13.07;5.23;;;-0.20;98.60;;;;;;2081182;28;20186;-65
2021/11/10 03:22:22;;;;;;;8.13;5.10;;;-0.20;98.70;;;;;;2078780;28;20181;-65
2021/11/10 03:23:23;;;;;;;8.73;5.25;;;-0.20;98.70;;;;;;2081482;28;20177;-65
2021/11/10 03:24:24;;;;;;;7.43;4.77;;;-0.30;98.70;;;;;;2081405;28;20534;-66
2021/11/10 03:25:25;;;;;;;9.33;5.43;;;-0.30;98.80;;;;;;2081401;28;20183;-65
2021/11/10 03:26:25;;;;;;;9.07;5.53;;;-0.30;98.80;;;;;;2081407;28;20184;-65
2021/11/10 03:27:27;;;;;;;11.23;6.17;;;-0.30;98.80;;;;;;2081452;28;20173;-65
2021/11/10 03:28:27;;;;;;;10.40;5.68;;;-0.30;98.70;;;;;;2081230;28;20255;-65
2021/11/10 03:29:29;;;;;;;11.37;5.67;;;-0.30;98.60;;;;;;2081468;28;20244;-65
2021/11/10 03:30:29;;;;;;;8.73;5.22;;;-0.30;98.60;;;;;;2081393;28;20242;-65
2021/11/10 03:31:32;;;;;;;7.53;5.23;;;-0.30;98.80;;;;;;2081190;28;20176;-64
2021/11/10 03:32:33;;;;;;;9.75;5.85;;;-0.40;99.00;;;;;;2081327;28;20173;-64
2021/11/10 03:33:33;;;;;;;10.90;6.20;;;-0.40;99.20;;;;;;2081479;28;20709;-65
2021/11/10 03:34:35;;;;;;;12.80;5.87;;;-0.40;99.40;;;;;;2081342;28;20181;-64
2021/11/10 03:35:36;;;;;;;10.10;6.28;;;-0.50;99.40;;;;;;2081488;28;20309;-64
2021/11/10 03:36:37;;;;;;;8.87;5.23;;;-0.40;99.50;;;;;;2081435;28;20607;-65
2021/11/10 03:37:39;;;;;;;10.57;5.63;;;-0.40;99.40;;;;;;2081438;28;20926;-65
2021/11/10 03:38:41;;;;;;;8.05;5.43;;;-0.40;99.40;;;;;;2081319;28;20278;-65
2021/11/10 03:39:42;;;;;;;10.13;6.25;;;-0.40;99.30;;;;;;2081456;28;20762;-64
2021/11/10 03:40:43;;;;;;;11.55;5.82;;;-0.40;99.30;;;;;;2081159;28;20614;-64
2021/11/10 03:41:45;;;;;;;8.77;5.60;;;-0.30;99.50;;;;;;2080482;28;20235;-64
2021/11/10 03:42:45;;;;;;;13.70;6.68;;;-0.30;99.70;;;;;;2080777;28;20191;-64
2021/11/10 03:43:47;;;;;;;10.67;5.77;;;-0.30;99.80;;;;;;2081502;28;20208;-65
2021/11/10 03:44:47;;;;;;;9.27;4.72;;;-0.20;99.90;;;;;;2081444;28;20204;-64
2021/11/10 03:45:48;;;;;;;9.60;6.17;;;-0.10;99.90;;;;;;2081784;28;20181;-65
2021/11/10 03:46:49;;;;;;;9.30;5.60;;;-0.10;99.90;;;;;;2081442;28;20185;-66
2021/11/10 03:47:50;;;;;;;8.27;5.28;;;0.00;99.90;;;;;;2081211;28;20177;-65
2021/11/10 03:48:51;;;;;;;7.80;5.27;;;0.00;99.90;;;;;;2081406;28;20183;-65
2021/11/10 03:49:52;;;;;;;10.23;5.78;;;0.10;99.90;;;;;;2081336;28;20671;-65
2021/11/10 03:50:54;;;;;;;9.75;4.95;;;0.10;99.90;;;;;;2081205;28;20181;-65
2021/11/10 03:51:55;;;;;;;7.40;4.85;;;0.20;99.90;;;;;;2080982;28;20201;-65
2021/11/10 03:52:55;;;;;;;11.75;5.78;;;0.20;99.90;;;;;;2081345;28;20189;-64
2021/11/10 03:53:57;;;;;;;10.30;5.43;;;0.30;99.90;;;;;;2081335;28;20177;-65
2021/11/10 03:54:58;;;;;;;12.95;5.47;;;0.30;99.90;;;;;;2081402;28;20176;-65
2021/11/10 03:55:59;;;;;;;7.53;4.80;;;0.30;99.90;;;;;;2081377;28;20185;-66
2021/11/10 03:56:59;;;;;;;11.60;5.05;;;0.30;99.90;;;;;;2081220;28;20419;-64
2021/11/10 03:58:00;;;;;;;8.40;4.83;;;0.30;99.90;;;;;;2081303;28;20641;-65
2021/11/10 03:59:01;;;;;;;8.93;5.47;;;0.40;99.90;;;;;;2081329;28;20234;-64
2021/11/10 04:00:04;;;;;;;6.87;5.10;;;0.40;99.90;;;;;;2080661;28;20195;-66
2021/11/10 04:01:05;;;;;;;7.68;4.97;;;0.40;99.90;;;;;;2080307;28;20212;-66
2021/11/10 04:02:08;;;;;;;8.38;4.85;;;0.40;99.90;;;;;;2081247;28;20181;-65
2021/11/10 04:03:09;;;;;;;6.82;4.30;;;0.40;99.90;;;;;;2081326;28;20212;-65
2021/11/10 04:04:10;;;;;;;7.13;4.63;;;0.40;99.90;;;;;;2081323;28;20181;-65
2021/11/10 04:05:11;;;;;;;7.57;4.47;;;0.50;99.90;;;;;;2081229;28;20177;-65
2021/11/10 04:06:12;;;;;;;8.60;4.23;;;0.50;99.90;;;;;;2081020;28;20657;-64
2021/11/10 04:07:12;;;;;;;7.35;4.47;;;0.50;99.90;;;;;;2081028;28;20180;-66
2021/11/10 04:08:13;;;;;;;8.47;4.20;;;0.50;99.90;;;;;;2080843;28;20683;-65
2021/11/10 04:09:14;;;;;;;5.43;3.87;;;0.50;99.90;;;;;;2081056;28;20327;-64
2021/11/10 04:10:15;;;;;;;5.87;4.13;;;0.60;99.90;;;;;;2081073;28;20180;-65
2021/11/10 04:11:15;;;;;;;7.50;4.07;;;0.60;99.90;;;;;;2080863;28;20177;-66
2021/11/10 04:12:16;;;;;;;6.47;4.00;;;0.60;99.90;;;;;;2081126;28;20170;-65
2021/11/10 04:13:18;;;;;;;6.40;3.70;;;0.60;99.90;;;;;;2082739;28;20235;-64
2021/11/10 04:14:18;;;;;;;8.02;3.78;;;0.60;99.90;;;;;;2082611;28;20199;-64
2021/11/10 04:15:19;;;;;;;5.83;3.97;;;0.60;99.90;;;;;;2082622;28;20178;-65
2021/11/10 04:16:22;;;;;;;9.83;3.90;;;0.50;99.90;;;;;;2082626;28;20557;-65
2021/11/10 04:17:22;;;;;;;6.35;3.88;;;0.60;99.90;;;;;;2082746;28;20176;-64
2021/11/10 04:18:23;;;;;;;8.23;3.50;;;0.50;99.90;;;;;;2082535;28;20296;-65
2021/11/10 04:19:24;;;;;;;5.23;3.53;;;0.60;99.90;;;;;;2082764;28;20252;-64
2021/11/10 04:20:24;;;;;;;7.00;4.07;;;0.50;99.90;;;;;;2082410;28;20169;-65
2021/11/10 04:21:26;;;;;;;6.23;4.07;;;0.50;99.80;;;;;;2082354;28;20174;-64
2021/11/10 04:22:27;;;;;;;7.35;4.00;;;0.40;99.80;;;;;;2082573;28;20169;-65
2021/11/10 04:23:31;;;;;;;6.97;3.70;;;0.40;99.90;;;;;;2082699;28;20189;-64
2021/11/10 04:24:31;;;;;;;5.70;3.60;;;0.40;99.90;;;;;;2082603;28;20185;-65
2021/11/10 04:25:32;;;;;;;6.10;3.57;;;0.40;99.90;;;;;;2082633;28;20209;-65
2021/11/10 04:26:38;;;;;;;6.17;3.83;;;0.40;99.90;;;;;;2082502;28;20177;-65
2021/11/10 04:27:39;;;;;;;7.78;3.70;;;0.40;99.80;;;;;;2090134;28;20639;-64
2021/11/10 04:28:39;;;;;;;6.83;4.43;;;0.40;99.70;;;;;;2090080;28;20208;-64
2021/11/10 04:29:40;;;;;;;8.00;4.87;;;0.40;99.60;;;;;;2082471;28;20419;-64
2021/11/10 04:30:41;;;;;;;7.83;4.47;;;0.40;99.50;;;;;;2082318;28;20191;-65
2021/11/10 04:31:42;;;;;;;7.17;4.00;;;0.40;99.40;;;;;;2082211;28;20264;-65
2021/11/10 04:32:44;;;;;;;7.75;4.50;;;0.30;99.30;;;;;;2082540;28;20188;-65
2021/11/10 04:33:45;;;;;;;6.35;3.35;;;0.30;99.30;;;;;;2082710;28;20266;-64
2021/11/10 04:34:46;;;;;;;4.90;3.20;;;0.30;99.30;;;;;;2082587;28;20266;-65
2021/11/10 04:35:49;;;;;;;9.53;4.07;;;0.30;99.50;;;;;;2082460;28;20188;-64
2021/11/10 04:36:49;;;;;;;8.45;4.28;;;0.30;99.50;;;;;;2082433;28;20837;-65
2021/11/10 04:37:50;;;;;;;6.20;3.90;;;0.30;99.40;;;;;;2082395;28;20280;-65
2021/11/10 04:38:51;;;;;;;7.87;4.37;;;0.20;99.40;;;;;;2082450;28;20255;-64
2021/11/10 04:39:52;;;;;;;7.60;4.82;;;0.20;99.40;;;;;;2082593;28;20230;-65
2021/11/10 04:40:53;;;;;;;7.57;4.30;;;0.10;99.50;;;;;;2082406;28;20230;-64
2021/11/10 04:41:54;;;;;;;7.07;4.13;;;0.10;99.60;;;;;;2082215;28;20177;-65
2021/11/10 04:42:54;;;;;;;6.80;4.10;;;0.10;99.80;;;;;;2082485;28;20272;-65
2021/11/10 04:43:55;;;;;;;6.50;4.40;;;0.10;99.90;;;;;;2082569;28;20713;-64
2021/11/10 04:45:04;;;;;;;7.33;4.50;;;0.10;99.90;;;;;;2082544;28;20181;-65
2021/11/10 04:46:14;;;;;;;7.28;4.20;;;0.10;99.90;;;;;;2082457;28;20550;-65
2021/11/10 04:47:14;;;;;;;6.10;4.32;;;0.10;99.90;;;;;;2082410;28;20341;-64
2021/11/10 04:48:15;;;;;;;6.23;4.07;;;0.10;99.90;;;;;;2082542;28;20201;-65
2021/11/10 04:49:17;;;;;;;6.67;4.10;;;0.10;99.90;;;;;;2082406;28;20173;-65
2021/11/10 04:50:18;;;;;;;9.70;4.57;;;0.10;99.90;;;;;;2082427;28;20200;-64
2021/11/10 04:51:23;;;;;;;8.33;4.70;;;0.10;99.90;;;;;;2082313;28;20177;-64
2021/11/10 04:52:25;;;;;;;9.35;4.65;;;0.10;99.90;;;;;;2082384;28;20535;-64
2021/11/10 04:53:26;;;;;;;7.05;4.40;;;0.10;99.90;;;;;;2082367;28;20196;-64
2021/11/10 04:54:32;;;;;;;6.65;4.35;;;0.10;99.90;;;;;;2082454;28;20208;-64
2021/11/10 04:55:32;;;;;;;8.77;4.35;;;0.20;99.90;;;;;;2082451;28;20161;-65
2021/11/10 04:56:36;;;;;;;10.23;4.83;;;0.20;99.90;;;;;;2082514;28;20573;-64
2021/11/10 04:57:37;;;;;;;6.95;4.82;;;0.20;99.90;;;;;;2082269;28;20187;-64
2021/11/10 04:58:38;;;;;;;9.67;5.37;;;0.20;99.90;;;;;;2082532;28;20683;-64
2021/11/10 04:59:39;;;;;;;8.73;5.13;;;0.20;99.90;;;;;;2082339;28;20184;-64
2021/11/10 05:00:39;;;;;;;10.33;5.60;;;0.20;99.90;;;;;;2082294;28;20555;-65
2021/11/10 05:01:43;;;;;;;8.33;5.67;;;0.20;99.90;;;;;;2082096;28;20184;-65
2021/11/10 05:02:44;;;;;;;9.60;5.30;;;0.30;99.90;;;;;;2082239;28;20188;-66
2021/11/10 05:03:45;;;;;;;8.75;5.05;;;0.30;99.90;;;;;;2082386;28;20197;-65
2021/11/10 05:04:46;;;;;;;7.00;4.60;;;0.30;99.90;;;;;;2082302;28;20188;-66
2021/11/10 05:05:47;;;;;;;8.27;5.10;;;0.30;99.80;;;;;;2082232;28;20173;-65
2021/11/10 05:06:47;;;;;;;6.97;4.60;;;0.30;99.60;;;;;;2082395;28;20184;-65
2021/11/10 05:07:49;;;;;;;7.60;5.43;;;0.30;99.50;;;;;;2082251;28;20204;-65
2021/11/10 05:08:50;;;;;;;11.88;6.82;;;0.30;99.50;;;;;;2082236;28;20188;-65
2021/11/10 05:09:52;;;;;;;11.93;7.60;;;0.30;99.40;;;;;;2082178;28;20189;-65
2021/11/10 05:10:52;;;;;;;11.63;6.90;;;0.30;99.30;;;;;;2082054;28;20656;-66
2021/11/10 05:11:54;;;;;;;12.53;6.83;;;0.40;99.30;;;;;;2082014;28;20193;-65
2021/11/10 05:12:55;;;;;;;8.23;5.75;;;0.30;99.40;;;;;;2082264;28;20644;-65
2021/11/10 05:13:55;;;;;;;7.40;5.17;;;0.40;99.30;;;;;;2082180;28;20186;-65
2021/11/10 05:14:56;;;;;;;7.03;5.03;;;0.40;99.30;;;;;;2082125;28;20424;-66
2021/11/10 05:15:57;;;;;;;8.77;4.30;;;0.40;99.30;;;;;;2082230;28;20188;-65
2021/11/10 05:16:58;;;;;;;5.67;3.93;;;0.40;99.30;;;;;;2082147;28;20202;-65
2021/11/10 05:17:59;;;;;;;6.73;4.40;;;0.30;99.50;;;;;;2082155;28;20189;-64
2021/11/10 05:18:59;;;;;;;5.63;4.27;;;0.30;99.60;;;;;;2082063;28;20178;-64
2021/11/10 05:20:00;;;;;;;6.13;4.33;;;0.30;99.60;;;;;;2082168;28;20291;-66